ADDS METAR Data INFO
IDs: Format: Raw Decoded Include TAF

Data at: 0611 UTC 25 Jun 2018

PAEN 250553Z 21006KT 10SM OVC060 12/08 A2990 RMK AO2 SLP128 T01170083 10144 20117 56005
PAEN 250453Z AUTO 21004KT 10SM FEW050 OVC060 12/07 A2991 RMK AO2 SLP130 T01170072 TSNO
PAEN 250353Z AUTO 25007KT 10SM OVC060 12/06 A2991 RMK AO2 SLP130 T01220061 TSNO
PAEN 250253Z 24008KT 10SM FEW049 OVC075 13/07 A2992 RMK AO2 SLP133 T01330067 58009
PAEN 250153Z 22007KT 10SM OVC075 14/07 A2993 RMK AO2 SLP136 T01440067
PAEN 250053Z 22007KT 10SM BKN047 OVC080 14/06 A2994 RMK AO2 SLP141 T01390061
PAEN 242353Z 22009KT 10SM FEW049 SCT075 OVC090 14/06 A2994 RMK AO2 SLP142 T01390061 10139 20111 58007
PAEN 242253Z 21006KT 10SM FEW050 BKN075 OVC090 12/07 A2996 RMK AO2 SLP146 T01220072
PAEN 242153Z 23006KT 10SM OVC060 12/07 A2996 RMK AO2 SLP149 T01220072
PAEN 242053Z 21006KT 10SM BKN065 OVC080 12/07 A2997 RMK AO2 SLP150 T01170072 55002
PAEN 241953Z 22009KT 10SM OVC075 12/07 A2996 RMK AO2 SLP147 T01170067
PAEN 241853Z 20007KT 10SM OVC080 12/06 A2996 RMK AO2 SLP148 T01170056
PAEN 241753Z 20008KT 10SM OVC060 11/05 A2997 RMK AO2 SLP151 T01110050 10111 20044 55002
PAEN 241653Z 19009KT 10SM OVC070 11/05 A2996 RMK AO2 SLP149 T01060050
PAEN 241553Z 19008KT 10SM OVC070 10/05 A2997 RMK AO2 SLP151 T01000050
PAEN 241453Z 17007KT 10SM BKN070 BKN080 08/06 A2998 RMK AO2 SLP153 T00830056 58006
PAEN 241353Z 17006KT 10SM FEW080 BKN110 06/05 A2998 RMK AO2 SLP155 T00610050
PAEN 241253Z AUTO 16003KT 10SM SCT080 07/05 A2999 RMK AO2 SLP157 T00670050 TSNO
PAEN 241153Z AUTO 17005KT 10SM CLR 07/04 A2999 RMK AO2 SLP159 T00720039 10100 20072 56005 TSNO
PAEN 241053Z AUTO 17005KT 10SM CLR 07/03 A3000 RMK AO2 SLP161 T00720028 TSNO
PAEN 240953Z AUTO 17006KT 10SM CLR 07/03 A3000 RMK AO2 SLP162 T00720033 TSNO
PAEN 240853Z AUTO 18009KT 10SM CLR 09/04 A3001 RMK AO2 SLP165 T00890044 401170083 57005 TSNO
PAEN 240753Z AUTO 21014KT 10SM CLR 09/04 A3002 RMK AO2 SLP167 T00890044 TSNO
PAEN 240653Z AUTO 21013KT 10SM FEW070 09/07 A3002 RMK AO2 SLP167 T00940067 TSNO
PAEN 240553Z AUTO 20012KT 10SM CLR 10/07 A3003 RMK AO2 SLP170 T01000067 10117 20100 56010 TSNO
PAEN 240453Z 21013KT 10SM SCT075 11/07 A3003 RMK AO2 SLP172 T01060067
PAEN 240353Z 21012KT 10SM OVC070 11/07 A3004 RMK AO2 SLP176 T01060067
PAEN 240253Z 21009KT 10SM SCT070 12/07 A3005 RMK AO2 SLP179 T01170067 56008
PAEN 240153Z 21010KT 10SM OVC065 11/07 A3006 RMK AO2 SLP181 T01110072
PAEN 240053Z 21011KT 10SM OVC060 11/07 A3007 RMK AO2 SLP185 T01110067
PAEN 232353Z 21009KT 10SM OVC060 12/07 A3008 RMK AO2 SLP188 T01170072 10117 20100 58009
PAEN 232253Z 21010KT 10SM OVC060 11/07 A3009 RMK AO2 SLP191 T01110072
PAEN 232153Z 23009KT 10SM FEW050 OVC060 12/06 A3010 RMK AO2 SLP195 T01170061
PAEN 232053Z 24009KT 10SM OVC060 12/06 A3011 RMK AO2 SLP197 T01170061 58007
PAEN 231953Z 20009KT 10SM OVC065 11/06 A3012 RMK AO2 SLP200 T01110061
PAEN 231853Z 22008KT 10SM SCT065 11/07 A3013 RMK AO2 SLP203 T01060067